ATC135 HTZA-HTDA
Flight info
| Callsign | ATC135 |
|---|---|
| Flight time | 0h 12m |
| Altitude | 8000 |
| Route | ZV DCT XORUK |
| Aircraft | B38M/M-SDE1FGHILORVWXY/HB1 |
Departure
| Time | 2026-04-15 14:23 |
|---|---|
| Airport | Abeid Amani Karume International Airport (HTZA) |
Arrival
| Time | 2026-04-15 14:35 |
|---|---|
| Airport | Julius Nyerere International Airport (HTDA) |
| Time | Latitude | Longitude | Altitude | Speed | Heading |
|---|---|---|---|---|---|
| 2026-04-15 13:50 | -6.22225 | 39.22244 | 61 ft | 0 kts | 265° |
| 2026-04-15 14:09 | -6.22225 | 39.22246 | 61 ft | 2 kts | 265° |
| 2026-04-15 14:10 | -6.22223 | 39.22263 | 55 ft | 2 kts | 266° |
| 2026-04-15 14:10 | -6.22223 | 39.22280 | 58 ft | 2 kts | 268° |
| 2026-04-15 14:10 | -6.22223 | 39.22296 | 60 ft | 2 kts | 273° |
| 2026-04-15 14:10 | -6.22225 | 39.22313 | 58 ft | 2 kts | 294° |
| 2026-04-15 14:11 | -6.22237 | 39.22324 | 61 ft | 2 kts | 350° |
| 2026-04-15 14:11 | -6.22242 | 39.22325 | 59 ft | 0 kts | 353° |
| 2026-04-15 14:17 | -6.22240 | 39.22324 | 59 ft | 1 kts | 353° |
| 2026-04-15 14:17 | -6.22213 | 39.22321 | 58 ft | 6 kts | 352° |
| 2026-04-15 14:17 | -6.22151 | 39.22314 | 62 ft | 12 kts | 353° |
| 2026-04-15 14:17 | -6.22046 | 39.22304 | 59 ft | 18 kts | 355° |
| 2026-04-15 14:18 | -6.21913 | 39.22291 | 62 ft | 16 kts | 354° |
| 2026-04-15 14:18 | -6.21811 | 39.22281 | 58 ft | 13 kts | 1° |
| 2026-04-15 14:18 | -6.21768 | 39.22331 | 63 ft | 11 kts | 78° |
| 2026-04-15 14:18 | -6.21750 | 39.22411 | 65 ft | 13 kts | 50° |
| 2026-04-15 14:19 | -6.21656 | 39.22438 | 59 ft | 17 kts | 358° |
| 2026-04-15 14:19 | -6.21522 | 39.22423 | 64 ft | 21 kts | 354° |
| 2026-04-15 14:19 | -6.21366 | 39.22408 | 67 ft | 23 kts | 354° |
| 2026-04-15 14:19 | -6.21213 | 39.22393 | 60 ft | 19 kts | 349° |
| 2026-04-15 14:20 | -6.21115 | 39.22357 | 61 ft | 12 kts | 35° |
| 2026-04-15 14:20 | -6.21140 | 39.22386 | 64 ft | 7 kts | 176° |
| 2026-04-15 14:20 | -6.21159 | 39.22387 | 63 ft | 0 kts | 174° |
| 2026-04-15 14:22 | -6.21160 | 39.22387 | 63 ft | 1 kts | 174° |
| 2026-04-15 14:23 | -6.21232 | 39.22394 | 62 ft | 40 kts | 174° |
| 2026-04-15 14:23 | -6.21821 | 39.22454 | 66 ft | 128 kts | 174° |
| 2026-04-15 14:23 | -6.22885 | 39.22571 | 383 ft | 157 kts | 173° |
| 2026-04-15 14:23 | -6.23959 | 39.22691 | 949 ft | 158 kts | 173° |
| 2026-04-15 14:24 | -6.25082 | 39.22855 | 1445 ft | 166 kts | 166° |
| 2026-04-15 14:24 | -6.26283 | 39.23179 | 2157 ft | 193 kts | 164° |
| 2026-04-15 14:24 | -6.27655 | 39.23571 | 3144 ft | 218 kts | 164° |
| 2026-04-15 14:24 | -6.29229 | 39.23999 | 4217 ft | 241 kts | 167° |
| 2026-04-15 14:25 | -6.30865 | 39.24378 | 5512 ft | 250 kts | 167° |
| 2026-04-15 14:25 | -6.32607 | 39.24789 | 5901 ft | 258 kts | 166° |
| 2026-04-15 14:25 | -6.34334 | 39.25204 | 5891 ft | 258 kts | 166° |
| 2026-04-15 14:25 | -6.36078 | 39.25626 | 5894 ft | 258 kts | 166° |
| 2026-04-15 14:26 | -6.37815 | 39.26049 | 5893 ft | 258 kts | 166° |
| 2026-04-15 14:26 | -6.39577 | 39.26478 | 5892 ft | 258 kts | 166° |
| 2026-04-15 14:26 | -6.41298 | 39.26898 | 5891 ft | 262 kts | 166° |
| 2026-04-15 14:26 | -6.42553 | 39.27205 | 5893 ft | 266 kts | 166° |
| 2026-04-15 14:27 | -6.44363 | 39.27647 | 5891 ft | 268 kts | 165° |
| 2026-04-15 14:27 | -6.46150 | 39.28084 | 5893 ft | 266 kts | 165° |
| 2026-04-15 14:27 | -6.47948 | 39.28524 | 5892 ft | 266 kts | 165° |
| 2026-04-15 14:27 | -6.49736 | 39.28961 | 5892 ft | 266 kts | 165° |
| 2026-04-15 14:28 | -6.51533 | 39.29401 | 5889 ft | 262 kts | 165° |
| 2026-04-15 14:28 | -6.53287 | 39.29830 | 5889 ft | 256 kts | 165° |
| 2026-04-15 14:28 | -6.55017 | 39.30253 | 5891 ft | 255 kts | 165° |
| 2026-04-15 14:28 | -6.56734 | 39.30673 | 5807 ft | 256 kts | 165° |
| 2026-04-15 14:29 | -6.58456 | 39.31094 | 5455 ft | 257 kts | 165° |
| 2026-04-15 14:29 | -6.60185 | 39.31517 | 5078 ft | 256 kts | 165° |
| 2026-04-15 14:29 | -6.61913 | 39.31940 | 4704 ft | 255 kts | 165° |
| 2026-04-15 14:29 | -6.63638 | 39.32362 | 4341 ft | 253 kts | 165° |
| 2026-04-15 14:30 | -6.65347 | 39.32780 | 4071 ft | 249 kts | 165° |
| 2026-04-15 14:30 | -6.66994 | 39.33183 | 3927 ft | 239 kts | 165° |
| 2026-04-15 14:30 | -6.68579 | 39.33571 | 3789 ft | 230 kts | 165° |
| 2026-04-15 14:30 | -6.70103 | 39.33944 | 3642 ft | 221 kts | 165° |
| 2026-04-15 14:31 | -6.71567 | 39.34302 | 3509 ft | 213 kts | 165° |
| 2026-04-15 14:31 | -6.73015 | 39.34372 | 3337 ft | 208 kts | 193° |
| 2026-04-15 14:31 | -6.74230 | 39.33687 | 3214 ft | 201 kts | 219° |
| 2026-04-15 14:31 | -6.75219 | 39.32662 | 2893 ft | 208 kts | 227° |
| 2026-04-15 14:32 | -6.76247 | 39.31633 | 2655 ft | 209 kts | 221° |
| 2026-04-15 14:32 | -6.77310 | 39.30641 | 2510 ft | 204 kts | 221° |
| 2026-04-15 14:32 | -6.78285 | 39.29707 | 2462 ft | 186 kts | 222° |
| 2026-04-15 14:32 | -6.79185 | 39.28833 | 2325 ft | 173 kts | 222° |
| 2026-04-15 14:33 | -6.79643 | 39.28387 | 2235 ft | 162 kts | 222° |
| 2026-04-15 14:33 | -6.80245 | 39.27779 | 1976 ft | 160 kts | 224° |
| 2026-04-15 14:33 | -6.81018 | 39.26983 | 1648 ft | 157 kts | 224° |
| 2026-04-15 14:33 | -6.81786 | 39.26198 | 1381 ft | 157 kts | 221° |
| 2026-04-15 14:34 | -6.82813 | 39.25215 | 1044 ft | 146 kts | 222° |
| 2026-04-15 14:34 | -6.83290 | 39.24750 | 929 ft | 145 kts | 222° |
| 2026-04-15 14:34 | -6.84248 | 39.23804 | 729 ft | 152 kts | 222° |
| 2026-04-15 14:34 | -6.84748 | 39.23319 | 627 ft | 148 kts | 224° |
| 2026-04-15 14:35 | -6.85477 | 39.22581 | 468 ft | 149 kts | 223° |
| 2026-04-15 14:35 | -6.86201 | 39.21869 | 251 ft | 144 kts | 223° |
| 2026-04-15 14:35 | -6.86865 | 39.21208 | 178 ft | 116 kts | 226° |
| 2026-04-15 14:35 | -6.87249 | 39.20822 | 180 ft | 47 kts | 225° |
| 2026-04-15 14:36 | -6.87345 | 39.20727 | 181 ft | 10 kts | 224° |
| 2026-04-15 14:36 | -6.87422 | 39.20652 | 182 ft | 22 kts | 224° |
| 2026-04-15 14:36 | -6.87546 | 39.20526 | 183 ft | 26 kts | 226° |
| 2026-04-15 14:36 | -6.87540 | 39.20382 | 190 ft | 24 kts | 316° |
| 2026-04-15 14:37 | -6.87404 | 39.20426 | 196 ft | 25 kts | 52° |
| 2026-04-15 14:37 | -6.87274 | 39.20553 | 183 ft | 27 kts | 44° |
| 2026-04-15 14:37 | -6.87143 | 39.20685 | 182 ft | 26 kts | 44° |
| 2026-04-15 14:37 | -6.87043 | 39.20783 | 181 ft | 18 kts | 45° |
| 2026-04-15 14:38 | -6.86944 | 39.20883 | 181 ft | 22 kts | 45° |
| 2026-04-15 14:38 | -6.86826 | 39.21001 | 180 ft | 23 kts | 45° |
| 2026-04-15 14:38 | -6.86716 | 39.21061 | 180 ft | 19 kts | 1° |
| 2026-04-15 14:38 | -6.86624 | 39.21098 | 180 ft | 1 kts | 359° |
| 2026-04-15 14:39 | -6.86612 | 39.21091 | 180 ft | 3 kts | 314° |
| 2026-04-15 14:39 | -6.86589 | 39.21063 | 180 ft | 7 kts | 317° |
| 2026-04-15 14:39 | -6.86571 | 39.21047 | 180 ft | 1 kts | 315° |
| 2026-04-15 14:39 | -6.86571 | 39.21046 | 180 ft | 0 kts | 315° |